Aviation Digital Data Service (ADDS)

Output produced by METARs form (0018 UTC 17 July 2019)
found at http://www.aviationweather.gov/metar/data/
 
Forecast for: BIGR (GRIMSEY ISLAND , IS)
Text: TAF BIGR 161402Z 1614/1623 09013KT 9999 SCT055 BKN065
Forecast period: 1400 to 2300 UTC 16 July 2019
Forecast type: FROM: standard forecast or significant change
Winds: from the E (90 degrees) at 15 MPH (13 knots; 6.7 m/s)
Visibility: 6 or more miles 10+ km)
Ceiling: 6500 feet AGL
Clouds: scattered clouds at 5500 feet AGL
broken clouds at 6500 feet AGL
Weather: no significant weather forecast for this period
Text: TEMPO 1614/1623 0500 -DZ FG VV004
Forecast period: 1400 to 2300 UTC 16 July 2019
Forecast type: TEMPORARY: The following changes expected for less than half the time period
Visibility: 0.31 miles (0.50 km)
Ceiling: indefinite ceiling with vertical visibility of 400 feet AGL
Clouds: obscured sky
Weather: -DZ FG  (light drizzle, fog)